Time;durP1;ratioP1;P1;durP2;ratioP2;P2;SDS_P1;SDS_P2;PMS_P1;PMS_P2;Temp;Humidity;BMP_temperature;BMP_pressure;BME280_temperature;BME280_humidity;BME280_pressure;Samples;Min_cycle;Max_cycle;Signal;HPM_P1;HPM_P2
2023/05/10 00:00:20;;;;;;;6.80;3.52;;;;;;;8.64;42.94;100139.10;1651175;85;21051;-63
2023/05/10 00:02:48;;;;;;;7.75;3.70;;;;;;;8.62;43.03;100135.69;1647512;85;21174;-63
2023/05/10 00:05:15;;;;;;;6.25;3.80;;;;;;;8.60;42.89;100128.40;1641050;85;21042;-62
2023/05/10 00:07:44;;;;;;;8.35;3.83;;;;;;;8.59;43.06;100131.88;1655195;85;21542;-62
2023/05/10 00:10:11;;;;;;;5.05;3.58;;;;;;;8.58;43.21;100128.89;1648845;85;21107;-63
2023/05/10 00:12:37;;;;;;;5.10;3.50;;;;;;;8.54;43.48;100129.88;1647746;85;21082;-62
2023/05/10 00:15:05;;;;;;;5.40;3.13;;;;;;;8.51;43.33;100129.98;1645700;85;21047;-63
2023/05/10 00:17:31;;;;;;;5.33;3.72;;;;;;;8.49;42.99;100125.30;1651862;85;21154;-62
2023/05/10 00:19:57;;;;;;;7.80;3.70;;;;;;;8.46;43.15;100129.30;1649066;85;21020;-63
2023/05/10 00:22:23;;;;;;;7.87;4.03;;;;;;;8.44;43.36;100131.09;1651698;85;21091;-63
2023/05/10 00:24:49;;;;;;;6.55;3.45;;;;;;;8.43;43.25;100131.97;1646116;85;21059;-63
2023/05/10 00:27:16;;;;;;;7.00;4.22;;;;;;;8.42;43.23;100127.68;1643583;85;21601;-63
2023/05/10 00:29:42;;;;;;;6.22;3.70;;;;;;;8.39;43.34;100130.38;1655541;85;21467;-62
2023/05/10 00:32:09;;;;;;;5.10;3.22;;;;;;;8.38;43.25;100132.11;1646528;85;21095;-63
2023/05/10 00:34:35;;;;;;;5.58;3.83;;;;;;;8.36;43.86;100126.55;1649025;86;20980;-62
2023/05/10 00:37:01;;;;;;;8.63;3.90;;;;;;;8.36;43.53;100127.84;1645740;86;20995;-62
2023/05/10 00:39:28;;;;;;;6.97;3.83;;;;;;;8.35;43.54;100127.45;1646275;85;21023;-62
2023/05/10 00:41:54;;;;;;;6.43;3.70;;;;;;;8.36;43.53;100125.25;1644156;86;21062;-63
2023/05/10 00:44:21;;;;;;;8.75;3.62;;;;;;;8.33;43.52;100124.05;1646245;86;20960;-63
2023/05/10 00:46:48;;;;;;;8.80;3.95;;;;;;;8.27;43.67;100127.23;1647187;86;21637;-63
2023/05/10 00:49:15;;;;;;;5.97;3.58;;;;;;;8.23;43.62;100123.05;1646238;86;21074;-63
2023/05/10 00:51:42;;;;;;;5.90;3.72;;;;;;;8.22;43.69;100130.42;1646373;86;21000;-63
2023/05/10 00:54:15;;;;;;;7.15;3.27;;;;;;;8.19;43.81;100118.81;1647034;86;21550;-63
2023/05/10 00:56:41;;;;;;;9.23;3.55;;;;;;;8.18;43.86;100114.52;1645974;86;21090;-63
2023/05/10 00:59:10;;;;;;;5.08;3.30;;;;;;;8.15;44.08;100119.83;1647860;86;21024;-63
2023/05/10 01:01:37;;;;;;;5.47;3.50;;;;;;;8.13;43.82;100119.02;1646089;86;20996;-63
2023/05/10 01:04:04;;;;;;;7.50;3.55;;;;;;;8.10;44.27;100113.91;1645569;86;21071;-63
2023/05/10 01:06:30;;;;;;;4.65;2.87;;;;;;;8.07;43.87;100114.01;1648832;85;20988;-63
2023/05/10 01:08:57;;;;;;;8.33;3.47;;;;;;;8.05;43.96;100106.23;1648432;86;20993;-63
2023/05/10 01:11:23;;;;;;;6.87;3.47;;;;;;;8.05;44.06;100113.19;1642317;86;21142;-62
2023/05/10 01:13:53;;;;;;;5.80;3.62;;;;;;;8.04;44.00;100110.20;1647272;86;21059;-63
2023/05/10 01:16:19;;;;;;;4.53;3.37;;;;;;;8.02;43.91;100105.48;1643021;86;21078;-63
2023/05/10 01:18:45;;;;;;;6.92;3.58;;;;;;;7.99;44.15;100110.78;1646068;86;21103;-63
2023/05/10 01:21:35;;;;;;;6.90;3.00;;;;;;;7.97;44.14;100108.67;1644836;86;21031;-62
2023/05/10 01:24:11;;;;;;;9.10;3.62;;;;;;;7.94;44.20;100104.87;1640673;86;21015;-63
2023/05/10 01:26:56;;;;;;;8.90;4.17;;;;;;;7.89;44.23;100101.55;1645631;85;20995;-63
2023/05/10 01:29:59;;;;;;;6.90;3.62;;;;;;;7.83;44.47;100107.33;1642369;86;21084;-63
2023/05/10 01:32:44;;;;;;;6.33;4.03;;;;;;;7.79;44.40;100101.84;1676424;84;21087;-63
2023/05/10 01:35:18;;;;;;;7.22;3.40;;;;;;;7.74;44.48;100105.02;1673325;84;21033;-63
2023/05/10 01:37:56;;;;;;;5.50;3.70;;;;;;;7.70;44.57;100098.64;1676990;84;20989;-63
2023/05/10 01:40:37;;;;;;;4.42;3.55;;;;;;;7.63;44.76;100101.42;1673299;84;21080;-63
2023/05/10 01:43:06;;;;;;;6.65;3.95;;;;;;;7.57;45.06;100100.77;1645584;85;21028;-63
2023/05/10 01:45:39;;;;;;;8.23;3.70;;;;;;;7.57;45.09;100099.46;1645559;85;21140;-63
2023/05/10 01:48:08;;;;;;;5.58;3.65;;;;;;;7.59;45.09;100098.98;1646072;85;21108;-62
2023/05/10 01:50:38;;;;;;;11.48;3.80;;;;;;;7.56;44.99;100096.44;1645678;85;21615;-63
2023/05/10 01:53:08;;;;;;;6.53;3.27;;;;;;;7.54;44.99;100093.05;1643392;85;21100;-63
2023/05/10 01:55:37;;;;;;;4.90;3.92;;;;;;;7.50;44.97;100100.52;1645763;85;21211;-63
2023/05/10 01:58:07;;;;;;;5.15;3.45;;;;;;;7.48;45.12;100103.60;1645577;85;21095;-62
2023/05/10 02:00:35;;;;;;;6.55;3.65;;;;;;;7.47;45.05;100101.91;1646304;85;21041;-63
2023/05/10 02:03:06;;;;;;;6.35;3.87;;;;;;;7.46;45.28;100097.62;1649333;85;21118;-63
2023/05/10 02:05:35;;;;;;;5.87;4.05;;;;;;;7.45;45.50;100095.89;1647134;85;21571;-63
2023/05/10 02:08:04;;;;;;;13.62;4.30;;;;;;;7.44;45.16;100096.80;1649281;85;21029;-62
2023/05/10 02:10:32;;;;;;;6.00;3.80;;;;;;;7.40;45.16;100094.30;1644721;85;21112;-62
2023/05/10 02:12:59;;;;;;;5.60;3.98;;;;;;;7.37;45.15;100090.48;1648029;85;21072;-62
2023/05/10 02:15:27;;;;;;;10.63;4.60;;;;;;;7.34;45.24;100089.28;1645367;85;21009;-62
2023/05/10 02:17:56;;;;;;;8.18;3.87;;;;;;;7.31;45.48;100097.16;1645513;85;21130;-62
2023/05/10 02:20:25;;;;;;;8.23;3.75;;;;;;;7.27;45.29;100090.33;1661007;84;21158;-63
2023/05/10 02:22:54;;;;;;;6.20;4.40;;;;;;;7.21;45.35;100093.11;1677785;84;21032;-62
2023/05/10 02:25:23;;;;;;;10.48;3.70;;;;;;;7.17;45.73;100087.60;1677997;84;20953;-63
2023/05/10 02:27:51;;;;;;;7.65;3.77;;;;;;;7.16;45.58;100096.27;1675929;84;21009;-63
2023/05/10 02:30:19;;;;;;;5.53;3.85;;;;;;;7.12;46.09;100094.20;1676160;83;21111;-63
2023/05/10 02:32:47;;;;;;;10.18;4.05;;;;;;;7.09;45.66;100093.45;1655666;84;21078;-62
2023/05/10 02:35:16;;;;;;;7.67;4.00;;;;;;;7.05;45.97;100089.22;1652127;85;21098;-63
2023/05/10 02:37:45;;;;;;;8.78;3.92;;;;;;;7.06;45.86;100098.73;1648783;85;21023;-62
2023/05/10 02:40:14;;;;;;;5.95;3.27;;;;;;;7.05;45.97;100091.81;1652738;85;21067;-63
2023/05/10 02:42:42;;;;;;;7.37;3.95;;;;;;;7.02;46.21;100092.74;1653127;85;20995;-63
2023/05/10 02:45:12;;;;;;;7.92;3.98;;;;;;;6.99;45.88;100090.23;1649102;85;21074;-62
2023/05/10 02:47:39;;;;;;;5.70;3.80;;;;;;;6.97;46.20;100096.35;1651241;85;21030;-63
2023/05/10 02:50:07;;;;;;;6.60;4.00;;;;;;;6.94;46.09;100092.94;1651868;85;21083;-62
2023/05/10 02:52:49;;;;;;;11.10;4.20;;;;;;;6.94;46.32;100097.28;1651519;85;21090;-62
2023/05/10 02:55:17;;;;;;;5.50;4.03;;;;;;;6.91;46.21;100087.83;1651647;85;20964;-62
2023/05/10 02:57:50;;;;;;;8.05;4.10;;;;;;;6.90;46.21;100093.92;1650905;85;21043;-63
2023/05/10 03:00:16;;;;;;;12.43;4.55;;;;;;;6.90;46.18;100095.22;1649172;85;21022;-62
2023/05/10 03:02:42;;;;;;;11.33;4.37;;;;;;;6.89;46.52;100097.42;1651543;85;21038;-62
2023/05/10 03:05:10;;;;;;;7.42;4.30;;;;;;;6.86;46.44;100091.02;1652344;85;21027;-62
2023/05/10 03:07:37;;;;;;;8.85;4.28;;;;;;;6.85;46.33;100099.67;1649433;85;21003;-62
2023/05/10 03:10:05;;;;;;;6.50;4.15;;;;;;;6.81;46.63;100096.77;1648314;85;21034;-62
2023/05/10 03:13:00;;;;;;;7.95;4.75;;;;;;;6.80;46.71;100106.72;1653967;85;21086;-62
2023/05/10 03:15:59;;;;;;;10.85;4.70;;;;;;;6.77;47.02;100105.51;1650087;85;21021;-62
2023/05/10 03:18:34;;;;;;;10.48;5.12;;;;;;;6.81;46.67;100107.15;1646744;85;20995;-62
2023/05/10 03:21:08;;;;;;;18.95;5.15;;;;;;;6.83;47.52;100102.75;1648020;85;21046;-63
2023/05/10 03:23:41;;;;;;;9.08;4.72;;;;;;;6.86;46.85;100104.42;1653156;85;21130;-63
2023/05/10 03:26:08;;;;;;;10.53;4.17;;;;;;;6.86;47.29;100094.91;1651989;85;21003;-62
2023/05/10 03:28:35;;;;;;;13.75;4.87;;;;;;;6.88;46.89;100100.89;1652600;85;20995;-63
2023/05/10 03:31:05;;;;;;;11.93;4.10;;;;;;;6.90;47.43;100092.63;1651461;85;21244;-63
2023/05/10 03:33:32;;;;;;;7.00;4.55;;;;;;;6.95;47.54;100093.36;1647713;86;21538;-62
2023/05/10 03:35:58;;;;;;;13.40;4.92;;;;;;;6.98;47.72;100090.29;1643265;86;21538;-62
2023/05/10 03:38:24;;;;;;;10.32;4.50;;;;;;;7.02;47.73;100094.49;1645714;86;21059;-62
2023/05/10 03:40:51;;;;;;;7.45;4.78;;;;;;;7.04;47.47;100092.27;1647267;86;20983;-63
2023/05/10 03:43:17;;;;;;;6.78;4.25;;;;;;;7.10;48.06;100092.55;1645315;86;21023;-63
2023/05/10 03:45:43;;;;;;;7.35;4.40;;;;;;;7.12;47.98;100088.17;1645976;86;21032;-62
2023/05/10 03:48:09;;;;;;;8.65;4.45;;;;;;;7.18;47.69;100091.44;1644682;86;20992;-63
2023/05/10 03:50:36;;;;;;;6.92;4.80;;;;;;;7.24;47.57;100090.42;1647150;86;22330;-63
2023/05/10 03:53:02;;;;;;;12.65;5.00;;;;;;;7.28;47.83;100086.86;1644713;86;21027;-63
2023/05/10 03:55:29;;;;;;;9.13;5.00;;;;;;;7.39;47.92;100086.11;1644570;86;21864;-62
2023/05/10 03:57:55;;;;;;;7.75;4.72;;;;;;;7.48;47.86;100085.41;1645431;86;21499;-62
2023/05/10 04:00:22;;;;;;;12.13;5.42;;;;;;;7.58;47.63;100092.06;1646873;86;21118;-63
2023/05/10 04:02:48;;;;;;;7.40;4.85;;;;;;;7.71;47.78;100092.56;1643414;85;21038;-63
2023/05/10 04:05:16;;;;;;;8.58;4.90;;;;;;;7.79;47.62;100086.23;1644013;86;21717;-63
2023/05/10 04:07:49;;;;;;;6.35;5.15;;;;;;;7.87;47.48;100091.64;1647261;86;21082;-63
2023/05/10 04:10:11;;;;;;;10.53;5.75;;;;;;;7.97;47.48;100089.17;1646847;85;21043;-63
2023/05/10 04:12:37;;;;;;;9.03;5.42;;;;;;;8.05;47.55;100089.33;1644498;86;20988;-63
2023/05/10 04:15:06;;;;;;;16.80;5.55;;;;;;;8.13;47.49;100089.10;1648159;86;21015;-62
2023/05/10 04:17:32;;;;;;;12.93;6.12;;;;;;;8.21;47.41;100083.21;1644318;86;21150;-63
2023/05/10 04:19:59;;;;;;;17.77;6.50;;;;;;;8.30;47.26;100077.70;1646560;86;21031;-63
2023/05/10 04:22:25;;;;;;;14.33;6.08;;;;;;;8.39;47.25;100084.39;1645412;86;20995;-63
2023/05/10 04:24:51;;;;;;;13.93;5.65;;;;;;;8.48;47.18;100089.74;1648037;86;21091;-63
2023/05/10 04:27:18;;;;;;;10.23;5.58;;;;;;;8.57;47.17;100081.66;1647154;86;21066;-63
2023/05/10 04:29:44;;;;;;;13.60;6.40;;;;;;;8.67;47.02;100092.14;1645011;86;21016;-63
2023/05/10 04:32:10;;;;;;;12.82;5.92;;;;;;;8.76;46.78;100085.77;1654870;84;20973;-63
2023/05/10 04:34:37;;;;;;;15.93;6.47;;;;;;;8.85;46.73;100088.08;1673018;84;21058;-63
2023/05/10 04:37:04;;;;;;;8.40;5.90;;;;;;;8.91;46.68;100081.81;1670238;83;21053;-63
2023/05/10 04:39:30;;;;;;;8.70;5.42;;;;;;;9.01;46.82;100087.08;1667509;84;20968;-63
2023/05/10 04:41:57;;;;;;;17.42;6.17;;;;;;;9.07;46.42;100081.64;1666202;84;21039;-63
2023/05/10 04:44:23;;;;;;;11.63;5.00;;;;;;;9.16;46.63;100089.16;1668758;84;21038;-63
2023/05/10 04:46:49;;;;;;;11.08;5.37;;;;;;;9.23;46.32;100093.69;1666489;84;20984;-63
2023/05/10 04:49:16;;;;;;;17.02;5.80;;;;;;;9.30;45.81;100095.61;1665837;84;21067;-63
2023/05/10 04:51:43;;;;;;;7.17;4.00;;;;;;;9.37;46.41;100080.16;1667509;84;21067;-63
2023/05/10 04:54:09;;;;;;;9.98;4.50;;;;;;;9.44;46.22;100081.65;1668293;84;21555;-63
2023/05/10 04:56:35;;;;;;;8.63;4.22;;;;;;;9.52;46.15;100079.61;1669884;84;21035;-64
2023/05/10 04:59:02;;;;;;;14.05;4.87;;;;;;;9.60;46.08;100072.33;1667144;84;21039;-63
2023/05/10 05:01:29;;;;;;;9.03;4.15;;;;;;;9.69;45.81;100078.10;1669686;84;21067;-63
2023/05/10 05:03:56;;;;;;;12.25;5.17;;;;;;;9.76;45.45;100082.19;1668458;84;20991;-63
2023/05/10 05:06:22;;;;;;;10.90;4.90;;;;;;;9.84;45.61;100076.23;1662103;84;21035;-63
2023/05/10 05:08:49;;;;;;;8.05;4.00;;;;;;;9.93;45.82;100077.17;1669082;84;22715;-65
2023/05/10 05:11:16;;;;;;;22.95;4.90;;;;;;;10.03;45.33;100088.95;1676378;84;21559;-63
2023/05/10 05:13:44;;;;;;;9.25;4.05;;;;;;;10.07;43.94;100082.69;1670270;84;21597;-63
2023/05/10 05:16:11;;;;;;;10.63;3.87;;;;;;;10.12;44.81;100071.24;1605654;88;21055;-63
2023/05/10 05:18:37;;;;;;;12.10;3.60;;;;;;;10.16;45.08;100071.03;1666914;83;21192;-64
2023/05/10 05:21:13;;;;;;;4.87;3.37;;;;;;;10.23;44.63;100066.44;1669173;84;21498;-64
2023/05/10 05:23:40;;;;;;;9.33;4.65;;;;;;;10.29;44.86;100069.67;1671199;84;21091;-64
2023/05/10 05:26:06;;;;;;;7.08;3.70;;;;;;;10.39;44.93;100075.39;1672973;84;21014;-66
2023/05/10 05:28:34;;;;;;;9.15;4.70;;;;;;;10.44;44.38;100068.19;1664980;84;21471;-64
2023/05/10 05:31:00;;;;;;;11.63;3.90;;;;;;;10.49;44.17;100057.11;1670505;83;20980;-65
2023/05/10 05:33:27;;;;;;;6.47;3.40;;;;;;;10.60;44.53;100063.66;1654755;84;21119;-65
2023/05/10 05:35:53;;;;;;;11.03;3.72;;;;;;;10.71;44.01;100061.44;1642820;86;21609;-62
2023/05/10 05:38:19;;;;;;;6.87;3.40;;;;;;;10.78;43.98;100069.39;1646409;86;22386;-62
2023/05/10 05:40:46;;;;;;;6.03;3.42;;;;;;;10.83;43.63;100070.05;1638618;86;20987;-62
2023/05/10 05:43:13;;;;;;;8.53;3.77;;;;;;;10.94;43.70;100065.67;1643794;86;21115;-61
2023/05/10 05:45:39;;;;;;;6.03;3.60;;;;;;;11.10;43.83;100080.23;1646316;86;21083;-61
2023/05/10 05:48:06;;;;;;;11.50;3.45;;;;;;;11.27;43.82;100058.12;1646024;86;21016;-62
2023/05/10 05:50:32;;;;;;;9.25;3.50;;;;;;;11.39;43.61;100056.24;1639118;86;21550;-62
2023/05/10 05:52:58;;;;;;;9.43;3.67;;;;;;;11.51;43.61;100059.22;1647870;86;21031;-61
2023/05/10 05:55:25;;;;;;;8.05;3.12;;;;;;;11.64;43.43;100055.13;1644594;86;20937;-62
2023/05/10 05:57:53;;;;;;;11.22;4.62;;;;;;;11.74;42.85;100056.88;1646446;85;21023;-61
2023/05/10 06:00:19;;;;;;;8.63;4.00;;;;;;;11.92;42.86;100061.72;1644781;86;21081;-62
2023/05/10 06:02:45;;;;;;;11.33;4.47;;;;;;;12.05;42.67;100055.83;1643327;86;21483;-61
2023/05/10 06:05:13;;;;;;;9.60;3.47;;;;;;;12.15;42.54;100057.53;1648677;86;21012;-62
2023/05/10 06:07:42;;;;;;;6.58;3.05;;;;;;;12.28;42.87;100058.64;1644010;86;21106;-62
2023/05/10 06:10:09;;;;;;;11.65;4.05;;;;;;;12.35;41.23;100066.19;1644753;86;21003;-62
2023/05/10 06:12:36;;;;;;;7.95;3.22;;;;;;;12.40;41.61;100061.58;1644218;86;20952;-62
2023/05/10 06:15:02;;;;;;;7.97;3.22;;;;;;;12.50;42.02;100056.28;1638293;86;21003;-62
2023/05/10 06:17:29;;;;;;;13.50;3.52;;;;;;;12.63;42.23;100058.68;1649613;86;21630;-62
2023/05/10 06:19:56;;;;;;;9.85;4.05;;;;;;;12.81;41.19;100049.02;1645501;86;21459;-62
2023/05/10 06:22:23;;;;;;;11.60;3.47;;;;;;;12.92;41.68;100049.79;1647961;86;21003;-62
2023/05/10 06:24:49;;;;;;;26.95;6.20;;;;;;;13.08;40.98;100057.69;1646058;86;21022;-62
2023/05/10 06:27:15;;;;;;;6.33;2.87;;;;;;;13.19;41.16;100051.41;1644148;86;21019;-62
2023/05/10 06:29:42;;;;;;;10.25;3.02;;;;;;;13.41;40.13;100049.84;1644752;86;21610;-62
2023/05/10 06:32:08;;;;;;;6.95;3.08;;;;;;;13.49;38.71;100046.34;1646392;86;21165;-62
2023/05/10 06:34:35;;;;;;;5.72;2.83;;;;;;;13.63;39.38;100049.06;1641714;86;21031;-62
2023/05/10 06:37:03;;;;;;;17.27;3.95;;;;;;;13.86;38.59;100045.62;1645335;86;21065;-62
2023/05/10 06:39:30;;;;;;;6.75;3.37;;;;;;;14.04;38.81;100053.80;1646918;86;20992;-61
2023/05/10 06:41:56;;;;;;;12.15;3.08;;;;;;;14.38;36.99;100042.68;1641547;86;20956;-62
2023/05/10 06:44:22;;;;;;;21.02;4.85;;;;;;;14.69;37.84;100052.28;1646398;86;21607;-62
2023/05/10 06:46:49;;;;;;;6.25;2.67;;;;;;;14.97;37.42;100058.52;1648429;86;21023;-62
2023/05/10 06:49:15;;;;;;;;;;;;;;;15.26;38.14;100044.91;1648145;86;20994;-62
2023/05/10 06:51:42;;;;;;;14.10;3.25;;;;;;;15.63;35.77;100054.48;1641791;86;20142;-63
2023/05/10 06:54:08;;;;;;;6.85;3.35;;;;;;;16.01;35.27;100040.67;1643831;86;20976;-62
2023/05/10 06:56:34;;;;;;;9.33;3.05;;;;;;;16.53;37.12;100047.80;1647933;86;21102;-62
2023/05/10 06:59:00;;;;;;;20.00;3.60;;;;;;;17.03;36.94;100043.56;1642597;86;21616;-63
2023/05/10 07:01:27;;;;;;;10.70;2.83;;;;;;;17.49;36.55;100040.33;1645990;86;21087;-62
2023/05/10 07:03:53;;;;;;;9.70;3.90;;;;;;;17.79;35.70;100033.84;1645299;86;21031;-62
2023/05/10 07:06:22;;;;;;;10.82;3.40;;;;;;;18.05;31.50;100042.02;1641500;85;21083;-63
2023/05/10 07:08:50;;;;;;;13.20;3.20;;;;;;;18.36;35.18;100034.47;1641531;86;21007;-62
2023/05/10 07:11:16;;;;;;;7.37;2.92;;;;;;;18.67;32.92;100031.67;1643380;86;21582;-63
2023/05/10 07:13:44;;;;;;;15.10;3.50;;;;;;;19.03;33.24;100039.59;1645903;85;20952;-63
2023/05/10 07:16:11;;;;;;;13.95;3.15;;;;;;;19.51;32.17;100028.77;1644126;86;21042;-61
2023/05/10 07:18:37;;;;;;;6.37;2.65;;;;;;;20.01;29.54;100042.42;1640406;86;21036;-63
2023/05/10 07:21:03;;;;;;;8.03;3.30;;;;;;;20.49;31.38;100028.72;1640927;86;21059;-65
2023/05/10 07:23:30;;;;;;;11.60;3.02;;;;;;;21.15;30.36;100031.11;1645752;86;21003;-63
2023/05/10 07:25:57;;;;;;;10.48;3.30;;;;;;;21.79;30.99;100025.94;1638501;86;20987;-62
2023/05/10 07:28:26;;;;;;;10.32;3.25;;;;;;;22.61;30.17;100028.74;1644196;86;21090;-63
2023/05/10 07:30:52;;;;;;;10.93;3.35;;;;;;;23.16;28.89;100014.23;1644672;86;21035;-63
2023/05/10 07:33:19;;;;;;;16.10;3.12;;;;;;;23.85;26.27;100015.59;1658091;84;21140;-63
2023/05/10 07:35:45;;;;;;;11.18;3.50;;;;;;;24.14;25.40;100014.03;1672241;83;21001;-61
2023/05/10 07:38:12;;;;;;;12.80;2.92;;;;;;;24.17;25.55;100009.75;1673738;84;21519;-62
2023/05/10 07:40:39;;;;;;;8.00;2.75;;;;;;;23.95;25.32;100008.88;1674837;84;21017;-62
2023/05/10 07:43:05;;;;;;;13.80;2.67;;;;;;;24.37;25.05;100007.75;1671066;84;21048;-61
2023/05/10 07:45:32;;;;;;;14.15;3.08;;;;;;;24.28;23.19;100016.19;1673434;84;21060;-62
2023/05/10 07:47:58;;;;;;;;;;;;;;;24.61;25.12;100011.11;1676369;84;21576;-62
2023/05/10 07:50:24;;;;;;;20.00;3.58;;;;;;;24.70;23.99;100002.19;1666093;84;20137;-62
2023/05/10 07:52:51;;;;;;;15.28;2.83;;;;;;;24.91;23.98;100002.30;1672375;84;21098;-62
2023/05/10 07:55:18;;;;;;;;;;;;;;;24.83;23.75;100011.60;1674568;84;21056;-62
2023/05/10 07:57:44;;;;;;;7.92;2.70;;;;;;;24.69;20.82;99997.82;1673299;84;20133;-62
2023/05/10 08:00:13;;;;;;;8.23;3.00;;;;;;;24.94;23.20;100008.66;1667644;84;21130;-62
2023/05/10 08:02:40;;;;;;;10.15;2.92;;;;;;;25.45;21.49;100012.27;1676476;83;21040;-62
2023/05/10 08:05:07;;;;;;;5.78;2.60;;;;;;;25.63;21.88;100021.03;1674796;84;21090;-62
2023/05/10 08:07:34;;;;;;;37.53;3.30;;;;;;;25.39;21.71;100012.92;1670562;84;21091;-61
2023/05/10 08:10:00;;;;;;;26.73;3.42;;;;;;;24.78;20.09;100012.89;1670848;84;21092;-61
2023/05/10 08:12:28;;;;;;;13.50;2.58;;;;;;;24.51;20.35;100018.40;1672863;84;21064;-62
2023/05/10 08:14:54;;;;;;;27.22;3.12;;;;;;;24.83;20.28;100015.61;1670794;84;21048;-61
2023/05/10 08:17:22;;;;;;;10.78;2.95;;;;;;;24.81;20.60;100010.91;1672241;84;22080;-63
2023/05/10 08:19:48;;;;;;;20.08;3.70;;;;;;;25.03;21.03;100023.73;1670784;84;21119;-62
2023/05/10 08:22:15;;;;;;;19.62;3.25;;;;;;;24.74;20.21;100044.92;1669629;84;21582;-62
2023/05/10 08:24:41;;;;;;;17.98;3.02;;;;;;;24.54;19.83;100020.76;1671278;84;21457;-61
2023/05/10 08:27:08;;;;;;;27.42;3.25;;;;;;;24.09;20.00;100025.18;1670929;84;21055;-61
2023/05/10 08:29:35;;;;;;;19.02;2.80;;;;;;;24.24;19.83;99998.79;1665616;84;21519;-61
2023/05/10 08:32:01;;;;;;;10.30;2.37;;;;;;;24.09;20.11;99993.17;1670785;84;20993;-61
2023/05/10 08:34:27;;;;;;;39.90;4.37;;;;;;;23.94;20.36;99989.84;1665181;84;21077;-62
2023/05/10 08:36:54;;;;;;;33.73;3.45;;;;;;;24.23;19.22;100020.30;1670415;84;21459;-62
2023/05/10 08:39:20;;;;;;;26.50;3.95;;;;;;;24.18;19.16;100007.41;1680385;84;21084;-62
2023/05/10 08:41:48;;;;;;;21.45;2.50;;;;;;;24.43;18.92;100020.97;1674941;84;21127;-62
2023/05/10 08:44:16;;;;;;;16.02;3.10;;;;;;;24.20;18.64;100010.78;1675741;84;21601;-62
2023/05/10 08:46:46;;;;;;;17.55;3.17;;;;;;;24.37;18.98;100017.09;1671434;84;21033;-63
2023/05/10 08:49:16;;;;;;;22.48;3.65;;;;;;;24.52;19.36;99996.04;1672242;83;20962;-62
2023/05/10 08:51:46;;;;;;;22.58;2.65;;;;;;;24.25;18.82;100039.64;1666402;84;20998;-61
2023/05/10 08:54:13;;;;;;;23.87;3.52;;;;;;;23.70;19.22;100013.91;1673617;84;21016;-62
2023/05/10 08:56:39;;;;;;;19.37;2.72;;;;;;;23.76;19.40;100016.00;1679948;84;21037;-61
2023/05/10 08:59:06;;;;;;;7.70;2.47;;;;;;;24.15;19.65;99997.05;1670081;84;21065;-61
2023/05/10 09:01:36;;;;;;;9.48;1.98;;;;;;;24.40;18.91;99995.42;1673391;84;21047;-62
2023/05/10 09:04:04;;;;;;;20.30;2.98;;;;;;;24.73;19.28;99977.84;1672849;84;21578;-62
2023/05/10 09:06:31;;;;;;;19.15;2.90;;;;;;;24.66;19.58;99984.80;1672594;84;20950;-61
2023/05/10 09:09:00;;;;;;;30.72;3.67;;;;;;;25.31;18.28;99986.16;1673428;84;21008;-62
2023/05/10 09:11:29;;;;;;;18.30;2.80;;;;;;;25.58;18.42;99985.92;1675949;83;21115;-62
2023/05/10 09:13:57;;;;;;;14.55;3.00;;;;;;;25.38;18.27;100012.09;1669039;84;21108;-63
2023/05/10 09:16:24;;;;;;;26.23;3.47;;;;;;;25.26;17.88;99994.64;1668597;84;21076;-61
2023/05/10 09:18:50;;;;;;;;;;;;;;;25.31;18.78;99995.52;1674357;84;21524;-61
2023/05/10 09:21:16;;;;;;;18.85;3.30;;;;;;;25.65;18.16;99984.28;1673002;84;20183;-61
2023/05/10 09:23:46;;;;;;;9.15;2.83;;;;;;;25.22;17.40;99987.96;1674678;84;20950;-62
2023/05/10 09:26:13;;;;;;;15.50;2.37;;;;;;;24.94;18.80;99987.30;1674064;84;21025;-62
2023/05/10 09:29:01;;;;;;;13.03;2.37;;;;;;;25.39;18.43;99986.19;1669654;84;20998;-62
2023/05/10 09:31:50;;;;;;;11.60;2.45;;;;;;;25.30;17.77;100000.53;1673281;84;21045;-62
2023/05/10 09:34:20;;;;;;;15.65;2.52;;;;;;;25.76;18.34;99976.92;1662071;83;21055;-62
2023/05/10 09:36:56;;;;;;;12.37;2.90;;;;;;;26.59;17.47;99994.75;1631378;86;21091;-62
2023/05/10 09:39:35;;;;;;;15.30;2.25;;;;;;;26.34;17.94;99970.64;1640229;86;21063;-62
2023/05/10 09:42:07;;;;;;;16.60;2.77;;;;;;;26.19;17.89;100001.77;1636920;86;21075;-62
2023/05/10 09:44:34;;;;;;;11.12;2.22;;;;;;;26.35;17.73;99969.63;1642582;86;21054;-62
2023/05/10 09:47:03;;;;;;;12.55;2.60;;;;;;;26.70;17.55;99976.99;1642946;86;21032;-62
2023/05/10 09:49:33;;;;;;;8.60;2.22;;;;;;;26.79;17.18;100000.06;1638620;86;20991;-63
2023/05/10 09:52:07;;;;;;;11.73;2.15;;;;;;;26.64;17.29;99984.38;1640735;86;21086;-62
2023/05/10 09:54:36;;;;;;;9.25;2.17;;;;;;;26.75;17.49;99965.27;1643868;85;21019;-62
2023/05/10 09:57:03;;;;;;;10.30;2.22;;;;;;;26.77;16.48;99988.68;1639686;85;21043;-62
2023/05/10 09:59:30;;;;;;;13.45;2.50;;;;;;;26.75;16.60;99967.95;1636356;86;21066;-62
2023/05/10 10:01:58;;;;;;;17.25;2.55;;;;;;;26.62;16.52;99991.73;1649077;85;21649;-62
2023/05/10 10:04:25;;;;;;;10.45;2.55;;;;;;;26.43;16.01;100039.23;1645263;86;21626;-63
2023/05/10 10:07:03;;;;;;;11.83;2.40;;;;;;;25.98;17.55;99957.59;1631069;86;21055;-62
2023/05/10 10:09:30;;;;;;;10.82;2.35;;;;;;;26.22;17.16;99978.69;1637704;86;21633;-62
2023/05/10 10:11:57;;;;;;;19.65;2.40;;;;;;;27.08;16.68;99945.05;1645257;86;21457;-63
2023/05/10 10:14:24;;;;;;;11.80;2.50;;;;;;;27.95;16.58;99948.95;1645902;86;21609;-62
2023/05/10 10:16:51;;;;;;;10.55;2.55;;;;;;;28.07;16.52;99958.27;1647607;85;21582;-62
2023/05/10 10:19:20;;;;;;;10.60;2.45;;;;;;;27.88;16.05;99955.04;1642681;86;21627;-62
2023/05/10 10:21:47;;;;;;;11.20;2.42;;;;;;;27.94;16.12;99961.54;1641744;86;21035;-61
2023/05/10 10:24:13;;;;;;;6.17;2.00;;;;;;;27.82;15.69;99974.54;1640293;86;21054;-61
2023/05/10 10:26:42;;;;;;;20.62;3.00;;;;;;;27.86;15.80;99946.33;1642576;86;21276;-62
2023/05/10 10:29:32;;;;;;;6.85;2.17;;;;;;;28.40;15.58;99949.91;1644288;86;21369;-62
2023/05/10 10:32:11;;;;;;;11.73;2.37;;;;;;;28.52;15.15;99953.86;1645701;86;21011;-61
2023/05/10 10:34:40;;;;;;;21.52;2.58;;;;;;;28.68;15.75;99960.90;1645381;86;21075;-62
2023/05/10 10:37:07;;;;;;;12.00;2.60;;;;;;;28.21;14.92;99954.78;1645070;86;21078;-61
2023/05/10 10:39:33;;;;;;;;;;;;;;;28.37;15.53;99939.53;1646315;86;21042;-62
2023/05/10 10:41:59;;;;;;;;;;;;;;;28.75;14.52;99965.36;1646006;86;20212;-62
2023/05/10 10:44:34;;;;;;;13.53;2.45;;;;;;;28.59;15.15;99941.34;1645515;86;20204;-61
2023/05/10 10:47:22;;;;;;;10.23;1.90;;;;;;;29.28;14.49;99928.97;1638799;86;21071;-63
2023/05/10 10:49:51;;;;;;;9.45;2.25;;;;;;;29.79;15.18;99924.05;1639035;86;21114;-61
2023/05/10 10:52:26;;;;;;;25.82;2.70;;;;;;;30.54;14.51;99914.01;1641883;86;21054;-62
2023/05/10 10:55:08;;;;;;;10.35;1.95;;;;;;;30.68;13.70;99926.22;1644808;86;21055;-62
2023/05/10 10:57:48;;;;;;;16.30;3.42;;;;;;;30.25;14.24;99923.63;1637817;86;21118;-62
2023/05/10 11:00:27;;;;;;;17.15;2.77;;;;;;;30.32;14.26;99917.80;1585020;89;21027;-62
2023/05/10 11:03:08;;;;;;;67.35;7.00;;;;;;;29.85;14.54;99917.89;1642098;86;21260;-63
2023/05/10 11:05:49;;;;;;;19.60;3.33;;;;;;;29.33;13.84;99945.89;1642521;86;21565;-63
2023/05/10 11:08:27;;;;;;;11.43;2.67;;;;;;;28.33;13.64;99913.05;1644121;86;21039;-61
2023/05/10 11:11:00;;;;;;;9.18;2.58;;;;;;;28.33;14.24;99917.07;1644731;86;21109;-62
2023/05/10 11:13:45;;;;;;;9.23;2.00;;;;;;;27.47;14.59;99910.70;1653462;85;21074;-62
2023/05/10 11:16:21;;;;;;;18.60;3.37;;;;;;;26.78;15.04;99908.16;1641804;86;21120;-62
2023/05/10 11:19:06;;;;;;;11.85;2.42;;;;;;;26.59;15.47;99914.42;1643026;86;21055;-62
2023/05/10 11:21:34;;;;;;;9.70;2.65;;;;;;;26.93;15.52;99915.47;1644238;85;21712;-63
2023/05/10 11:24:05;;;;;;;11.97;2.62;;;;;;;27.03;15.37;99902.71;1648087;86;21019;-63
2023/05/10 11:26:35;;;;;;;9.83;2.37;;;;;;;27.33;15.48;99909.09;1636823;86;21059;-62
2023/05/10 11:29:02;;;;;;;6.45;2.20;;;;;;;27.01;15.02;99932.34;1641219;86;21654;-63
2023/05/10 11:31:29;;;;;;;7.70;2.45;;;;;;;26.07;15.91;99907.08;1643448;86;21094;-62
2023/05/10 11:33:58;;;;;;;13.62;2.50;;;;;;;25.97;15.59;99913.12;1645754;85;21004;-62
2023/05/10 11:36:29;;;;;;;19.77;2.62;;;;;;;25.53;15.61;99910.70;1644253;86;21095;-62